sensor_id;sensor_type;location;lat;lon;timestamp;temperature;humidity
19060;DHT22;9663;48.996;8.334;2023-11-21T00:00:14;14.10;63.00
19060;DHT22;9663;48.996;8.334;2023-11-21T00:02:41;14.10;62.90
19060;DHT22;9663;48.996;8.334;2023-11-21T00:05:08;14.10;62.90
19060;DHT22;9663;48.996;8.334;2023-11-21T00:07:36;14.10;62.90
19060;DHT22;9663;48.996;8.334;2023-11-21T00:10:03;14.10;62.80
19060;DHT22;9663;48.996;8.334;2023-11-21T00:12:31;14.10;62.90
19060;DHT22;9663;48.996;8.334;2023-11-21T00:14:57;14.10;63.00
19060;DHT22;9663;48.996;8.334;2023-11-21T00:17:23;14.10;62.90
19060;DHT22;9663;48.996;8.334;2023-11-21T00:19:49;14.10;63.00
19060;DHT22;9663;48.996;8.334;2023-11-21T00:22:17;14.10;63.00
19060;DHT22;9663;48.996;8.334;2023-11-21T00:24:43;14.10;63.10
19060;DHT22;9663;48.996;8.334;2023-11-21T00:27:09;14.00;62.90
19060;DHT22;9663;48.996;8.334;2023-11-21T00:29:35;14.00;62.90
19060;DHT22;9663;48.996;8.334;2023-11-21T00:32:01;14.00;62.90
19060;DHT22;9663;48.996;8.334;2023-11-21T00:34:27;14.10;63.00
19060;DHT22;9663;48.996;8.334;2023-11-21T00:36:53;14.00;63.00
19060;DHT22;9663;48.996;8.334;2023-11-21T00:39:19;14.00;63.00
19060;DHT22;9663;48.996;8.334;2023-11-21T00:41:44;14.00;63.00
19060;DHT22;9663;48.996;8.334;2023-11-21T00:44:11;14.00;63.00
19060;DHT22;9663;48.996;8.334;2023-11-21T00:46:36;14.00;63.10
19060;DHT22;9663;48.996;8.334;2023-11-21T00:49:02;14.00;63.00
19060;DHT22;9663;48.996;8.334;2023-11-21T00:51:29;14.00;63.00
19060;DHT22;9663;48.996;8.334;2023-11-21T00:53:56;14.00;63.00
19060;DHT22;9663;48.996;8.334;2023-11-21T00:56:23;14.00;63.00
19060;DHT22;9663;48.996;8.334;2023-11-21T00:58:49;14.00;63.10
19060;DHT22;9663;48.996;8.334;2023-11-21T01:01:20;14.00;63.10
19060;DHT22;9663;48.996;8.334;2023-11-21T01:03:50;14.00;63.10
19060;DHT22;9663;48.996;8.334;2023-11-21T01:06:16;14.00;63.10
19060;DHT22;9663;48.996;8.334;2023-11-21T01:08:45;14.00;63.10
19060;DHT22;9663;48.996;8.334;2023-11-21T01:11:11;14.10;63.20
19060;DHT22;9663;48.996;8.334;2023-11-21T01:13:41;14.10;63.10
19060;DHT22;9663;48.996;8.334;2023-11-21T01:16:08;14.10;63.30
19060;DHT22;9663;48.996;8.334;2023-11-21T01:18:35;14.10;63.10
19060;DHT22;9663;48.996;8.334;2023-11-21T01:21:01;14.10;63.10
19060;DHT22;9663;48.996;8.334;2023-11-21T01:23:27;14.10;63.10
19060;DHT22;9663;48.996;8.334;2023-11-21T01:25:55;14.10;63.10
19060;DHT22;9663;48.996;8.334;2023-11-21T01:28:21;14.10;63.00
19060;DHT22;9663;48.996;8.334;2023-11-21T01:30:48;14.10;63.00
19060;DHT22;9663;48.996;8.334;2023-11-21T01:33:14;14.10;63.00
19060;DHT22;9663;48.996;8.334;2023-11-21T01:35:41;14.10;63.00
19060;DHT22;9663;48.996;8.334;2023-11-21T01:38:07;14.10;63.00
19060;DHT22;9663;48.996;8.334;2023-11-21T01:40:34;14.10;63.00
19060;DHT22;9663;48.996;8.334;2023-11-21T01:43:00;14.10;63.00
19060;DHT22;9663;48.996;8.334;2023-11-21T01:45:28;14.10;63.00
19060;DHT22;9663;48.996;8.334;2023-11-21T01:47:56;14.10;63.10
19060;DHT22;9663;48.996;8.334;2023-11-21T01:50:24;14.00;63.10
19060;DHT22;9663;48.996;8.334;2023-11-21T01:52:50;14.00;63.30
19060;DHT22;9663;48.996;8.334;2023-11-21T01:55:17;14.00;63.30
19060;DHT22;9663;48.996;8.334;2023-11-21T01:57:47;13.90;63.40
19060;DHT22;9663;48.996;8.334;2023-11-21T02:00:14;13.90;63.40
19060;DHT22;9663;48.996;8.334;2023-11-21T02:02:48;13.90;63.40
19060;DHT22;9663;48.996;8.334;2023-11-21T02:05:18;13.90;63.60
19060;DHT22;9663;48.996;8.334;2023-11-21T02:07:45;13.90;63.50
19060;DHT22;9663;48.996;8.334;2023-11-21T02:10:15;13.90;64.30
19060;DHT22;9663;48.996;8.334;2023-11-21T02:12:42;13.80;63.40
19060;DHT22;9663;48.996;8.334;2023-11-21T02:15:11;13.80;63.40
19060;DHT22;9663;48.996;8.334;2023-11-21T02:17:43;13.80;63.50
19060;DHT22;9663;48.996;8.334;2023-11-21T02:20:12;13.70;63.60
19060;DHT22;9663;48.996;8.334;2023-11-21T02:22:53;13.70;63.70
19060;DHT22;9663;48.996;8.334;2023-11-21T02:25:26;13.60;63.60
19060;DHT22;9663;48.996;8.334;2023-11-21T02:27:53;13.60;63.50
19060;DHT22;9663;48.996;8.334;2023-11-21T02:30:21;13.50;63.50
19060;DHT22;9663;48.996;8.334;2023-11-21T02:32:48;13.50;63.70
19060;DHT22;9663;48.996;8.334;2023-11-21T02:35:14;13.50;63.80
19060;DHT22;9663;48.996;8.334;2023-11-21T02:37:41;13.50;63.80
19060;DHT22;9663;48.996;8.334;2023-11-21T02:40:10;13.40;63.80
19060;DHT22;9663;48.996;8.334;2023-11-21T02:42:43;13.40;64.10
19060;DHT22;9663;48.996;8.334;2023-11-21T02:45:10;13.40;64.10
19060;DHT22;9663;48.996;8.334;2023-11-21T02:47:38;13.30;64.10
19060;DHT22;9663;48.996;8.334;2023-11-21T02:50:05;13.30;64.10
19060;DHT22;9663;48.996;8.334;2023-11-21T02:52:34;13.30;64.10
19060;DHT22;9663;48.996;8.334;2023-11-21T02:55:04;13.30;64.20
19060;DHT22;9663;48.996;8.334;2023-11-21T02:57:30;13.30;64.20
19060;DHT22;9663;48.996;8.334;2023-11-21T02:59:56;13.30;64.30
19060;DHT22;9663;48.996;8.334;2023-11-21T03:02:22;13.30;64.30
19060;DHT22;9663;48.996;8.334;2023-11-21T03:04:48;13.20;64.30
19060;DHT22;9663;48.996;8.334;2023-11-21T03:07:15;13.20;64.30
19060;DHT22;9663;48.996;8.334;2023-11-21T03:09:41;13.30;64.40
19060;DHT22;9663;48.996;8.334;2023-11-21T03:12:07;13.30;64.50
19060;DHT22;9663;48.996;8.334;2023-11-21T03:14:34;13.20;64.40
19060;DHT22;9663;48.996;8.334;2023-11-21T03:16:59;13.20;64.50
19060;DHT22;9663;48.996;8.334;2023-11-21T03:19:25;13.30;64.60
19060;DHT22;9663;48.996;8.334;2023-11-21T03:21:51;13.30;64.60
19060;DHT22;9663;48.996;8.334;2023-11-21T03:24:18;13.20;64.50
19060;DHT22;9663;48.996;8.334;2023-11-21T03:26:45;13.30;64.60
19060;DHT22;9663;48.996;8.334;2023-11-21T03:29:12;13.30;64.60
19060;DHT22;9663;48.996;8.334;2023-11-21T03:31:38;13.30;64.60
19060;DHT22;9663;48.996;8.334;2023-11-21T03:34:04;13.30;64.70
19060;DHT22;9663;48.996;8.334;2023-11-21T03:36:30;13.30;64.70
19060;DHT22;9663;48.996;8.334;2023-11-21T03:38:55;13.30;64.60
19060;DHT22;9663;48.996;8.334;2023-11-21T03:41:21;13.30;64.60
19060;DHT22;9663;48.996;8.334;2023-11-21T03:43:47;13.30;64.60
19060;DHT22;9663;48.996;8.334;2023-11-21T03:46:13;13.30;64.60
19060;DHT22;9663;48.996;8.334;2023-11-21T03:48:39;13.30;65.60
19060;DHT22;9663;48.996;8.334;2023-11-21T03:51:05;13.30;64.70
19060;DHT22;9663;48.996;8.334;2023-11-21T03:53:31;13.30;64.80
19060;DHT22;9663;48.996;8.334;2023-11-21T03:55:57;13.30;64.80
19060;DHT22;9663;48.996;8.334;2023-11-21T03:58:23;13.30;64.80
19060;DHT22;9663;48.996;8.334;2023-11-21T04:00:49;13.40;64.80
19060;DHT22;9663;48.996;8.334;2023-11-21T04:03:14;13.30;65.50
19060;DHT22;9663;48.996;8.334;2023-11-21T04:05:41;13.30;64.80
19060;DHT22;9663;48.996;8.334;2023-11-21T04:08:06;13.40;64.80
19060;DHT22;9663;48.996;8.334;2023-11-21T04:10:32;13.40;64.80
19060;DHT22;9663;48.996;8.334;2023-11-21T04:12:58;13.40;64.80
19060;DHT22;9663;48.996;8.334;2023-11-21T04:15:25;13.40;64.80
19060;DHT22;9663;48.996;8.334;2023-11-21T04:17:51;13.40;64.80
19060;DHT22;9663;48.996;8.334;2023-11-21T04:20:17;13.40;64.80
19060;DHT22;9663;48.996;8.334;2023-11-21T04:22:44;13.40;64.80
19060;DHT22;9663;48.996;8.334;2023-11-21T04:25:16;13.40;64.90
19060;DHT22;9663;48.996;8.334;2023-11-21T04:27:43;13.50;65.00
19060;DHT22;9663;48.996;8.334;2023-11-21T04:30:13;13.40;64.80
19060;DHT22;9663;48.996;8.334;2023-11-21T04:32:39;13.40;64.80
19060;DHT22;9663;48.996;8.334;2023-11-21T04:35:05;13.40;65.10
19060;DHT22;9663;48.996;8.334;2023-11-21T04:37:31;13.40;64.80
19060;DHT22;9663;48.996;8.334;2023-11-21T04:39:57;13.50;64.90
19060;DHT22;9663;48.996;8.334;2023-11-21T04:42:23;13.50;65.00
19060;DHT22;9663;48.996;8.334;2023-11-21T04:44:49;13.50;65.00
19060;DHT22;9663;48.996;8.334;2023-11-21T04:47:15;13.50;65.00
19060;DHT22;9663;48.996;8.334;2023-11-21T04:49:42;13.50;65.00
19060;DHT22;9663;48.996;8.334;2023-11-21T04:52:09;13.50;65.00
19060;DHT22;9663;48.996;8.334;2023-11-21T04:54:35;13.60;64.90
19060;DHT22;9663;48.996;8.334;2023-11-21T04:57:02;13.60;64.90
19060;DHT22;9663;48.996;8.334;2023-11-21T04:59:28;13.60;64.90
19060;DHT22;9663;48.996;8.334;2023-11-21T05:01:54;13.60;64.80
19060;DHT22;9663;48.996;8.334;2023-11-21T05:04:20;13.60;64.90
19060;DHT22;9663;48.996;8.334;2023-11-21T05:06:48;13.60;64.90
19060;DHT22;9663;48.996;8.334;2023-11-21T05:09:14;13.60;64.90
19060;DHT22;9663;48.996;8.334;2023-11-21T05:11:41;13.60;64.90
19060;DHT22;9663;48.996;8.334;2023-11-21T05:14:06;13.60;64.80
19060;DHT22;9663;48.996;8.334;2023-11-21T05:16:32;13.60;64.80
19060;DHT22;9663;48.996;8.334;2023-11-21T05:18:59;13.60;64.80
19060;DHT22;9663;48.996;8.334;2023-11-21T05:21:26;13.60;64.80
19060;DHT22;9663;48.996;8.334;2023-11-21T05:23:52;13.50;64.90
19060;DHT22;9663;48.996;8.334;2023-11-21T05:26:18;13.50;65.00
19060;DHT22;9663;48.996;8.334;2023-11-21T05:28:44;13.50;65.00
19060;DHT22;9663;48.996;8.334;2023-11-21T05:31:09;13.50;65.10
19060;DHT22;9663;48.996;8.334;2023-11-21T05:33:36;13.50;65.10
19060;DHT22;9663;48.996;8.334;2023-11-21T05:36:02;13.50;65.10
19060;DHT22;9663;48.996;8.334;2023-11-21T05:38:28;13.50;65.20
19060;DHT22;9663;48.996;8.334;2023-11-21T05:40:54;13.50;65.30
19060;DHT22;9663;48.996;8.334;2023-11-21T05:43:20;13.50;65.30
19060;DHT22;9663;48.996;8.334;2023-11-21T05:45:46;13.40;65.20
19060;DHT22;9663;48.996;8.334;2023-11-21T05:48:12;13.40;65.10
19060;DHT22;9663;48.996;8.334;2023-11-21T05:50:37;13.40;65.30
19060;DHT22;9663;48.996;8.334;2023-11-21T05:53:03;13.40;65.30
19060;DHT22;9663;48.996;8.334;2023-11-21T05:55:29;13.40;65.40
19060;DHT22;9663;48.996;8.334;2023-11-21T05:57:55;13.40;65.50
19060;DHT22;9663;48.996;8.334;2023-11-21T06:00:21;13.40;65.50
19060;DHT22;9663;48.996;8.334;2023-11-21T06:02:51;13.40;65.60
19060;DHT22;9663;48.996;8.334;2023-11-21T06:05:22;13.40;65.60
19060;DHT22;9663;48.996;8.334;2023-11-21T06:07:53;13.40;65.80
19060;DHT22;9663;48.996;8.334;2023-11-21T06:10:23;13.40;65.70
19060;DHT22;9663;48.996;8.334;2023-11-21T06:12:49;13.40;65.70
19060;DHT22;9663;48.996;8.334;2023-11-21T06:15:15;13.40;65.60
19060;DHT22;9663;48.996;8.334;2023-11-21T06:17:42;13.40;65.60
19060;DHT22;9663;48.996;8.334;2023-11-21T06:20:09;13.40;65.70
19060;DHT22;9663;48.996;8.334;2023-11-21T06:22:41;13.40;65.70
19060;DHT22;9663;48.996;8.334;2023-11-21T06:25:08;13.40;65.80
19060;DHT22;9663;48.996;8.334;2023-11-21T06:27:46;13.40;65.70
19060;DHT22;9663;48.996;8.334;2023-11-21T06:30:13;13.50;65.80
19060;DHT22;9663;48.996;8.334;2023-11-21T06:32:41;13.50;66.60
19060;DHT22;9663;48.996;8.334;2023-11-21T06:35:07;13.50;65.70
19060;DHT22;9663;48.996;8.334;2023-11-21T06:37:35;13.50;65.70
19060;DHT22;9663;48.996;8.334;2023-11-21T06:40:01;13.50;65.70
19060;DHT22;9663;48.996;8.334;2023-11-21T06:42:29;13.50;65.70
19060;DHT22;9663;48.996;8.334;2023-11-21T06:44:55;13.50;65.70
19060;DHT22;9663;48.996;8.334;2023-11-21T06:47:23;13.50;65.70
19060;DHT22;9663;48.996;8.334;2023-11-21T06:49:53;13.50;65.70
19060;DHT22;9663;48.996;8.334;2023-11-21T06:52:19;13.50;65.70
19060;DHT22;9663;48.996;8.334;2023-11-21T06:54:45;13.50;65.70
19060;DHT22;9663;48.996;8.334;2023-11-21T06:57:13;13.50;65.80
19060;DHT22;9663;48.996;8.334;2023-11-21T06:59:39;13.60;65.80
19060;DHT22;9663;48.996;8.334;2023-11-21T07:02:04;13.60;65.80
19060;DHT22;9663;48.996;8.334;2023-11-21T07:04:33;13.60;65.80
19060;DHT22;9663;48.996;8.334;2023-11-21T07:06:59;13.60;65.70
19060;DHT22;9663;48.996;8.334;2023-11-21T07:09:25;13.60;65.80
19060;DHT22;9663;48.996;8.334;2023-11-21T07:11:52;13.60;65.80
19060;DHT22;9663;48.996;8.334;2023-11-21T07:14:18;13.60;65.80
19060;DHT22;9663;48.996;8.334;2023-11-21T07:16:45;13.60;65.80
19060;DHT22;9663;48.996;8.334;2023-11-21T07:19:11;13.60;65.70
19060;DHT22;9663;48.996;8.334;2023-11-21T07:21:38;13.60;65.80
19060;DHT22;9663;48.996;8.334;2023-11-21T07:24:06;13.60;65.90
19060;DHT22;9663;48.996;8.334;2023-11-21T07:26:33;13.60;65.90
19060;DHT22;9663;48.996;8.334;2023-11-21T07:29:00;13.60;65.90
19060;DHT22;9663;48.996;8.334;2023-11-21T07:31:26;13.60;65.80
19060;DHT22;9663;48.996;8.334;2023-11-21T07:33:52;13.60;65.80
19060;DHT22;9663;48.996;8.334;2023-11-21T07:36:19;13.60;65.80
19060;DHT22;9663;48.996;8.334;2023-11-21T07:38:46;13.60;65.70
19060;DHT22;9663;48.996;8.334;2023-11-21T07:41:12;13.50;65.70
19060;DHT22;9663;48.996;8.334;2023-11-21T07:43:41;13.50;65.80
19060;DHT22;9663;48.996;8.334;2023-11-21T07:46:07;13.50;65.90
19060;DHT22;9663;48.996;8.334;2023-11-21T07:48:34;13.50;66.10
19060;DHT22;9663;48.996;8.334;2023-11-21T07:51:01;13.50;66.10
19060;DHT22;9663;48.996;8.334;2023-11-21T07:53:30;13.50;66.10
19060;DHT22;9663;48.996;8.334;2023-11-21T07:55:57;13.50;66.10
19060;DHT22;9663;48.996;8.334;2023-11-21T07:58:24;13.50;66.10
19060;DHT22;9663;48.996;8.334;2023-11-21T08:00:50;13.50;66.20
19060;DHT22;9663;48.996;8.334;2023-11-21T08:03:16;13.50;66.30
19060;DHT22;9663;48.996;8.334;2023-11-21T08:05:42;13.50;66.40
19060;DHT22;9663;48.996;8.334;2023-11-21T08:08:08;13.50;66.40
19060;DHT22;9663;48.996;8.334;2023-11-21T08:10:34;13.60;66.30
19060;DHT22;9663;48.996;8.334;2023-11-21T08:13:01;13.60;66.30
19060;DHT22;9663;48.996;8.334;2023-11-21T08:15:29;13.60;66.30
19060;DHT22;9663;48.996;8.334;2023-11-21T08:17:57;13.60;66.40
19060;DHT22;9663;48.996;8.334;2023-11-21T08:20:24;13.60;66.40
19060;DHT22;9663;48.996;8.334;2023-11-21T08:22:50;13.70;66.40
19060;DHT22;9663;48.996;8.334;2023-11-21T08:25:18;13.70;66.30
19060;DHT22;9663;48.996;8.334;2023-11-21T08:27:45;13.70;66.30
19060;DHT22;9663;48.996;8.334;2023-11-21T08:30:12;13.80;66.40
19060;DHT22;9663;48.996;8.334;2023-11-21T08:32:39;13.80;66.40
19060;DHT22;9663;48.996;8.334;2023-11-21T08:35:07;13.90;66.40
19060;DHT22;9663;48.996;8.334;2023-11-21T08:37:33;13.90;66.40
19060;DHT22;9663;48.996;8.334;2023-11-21T08:40:03;14.00;66.40
19060;DHT22;9663;48.996;8.334;2023-11-21T08:42:34;14.00;66.40
19060;DHT22;9663;48.996;8.334;2023-11-21T08:45:00;14.10;66.40
19060;DHT22;9663;48.996;8.334;2023-11-21T08:47:26;14.10;66.30
19060;DHT22;9663;48.996;8.334;2023-11-21T08:49:52;14.20;66.30
19060;DHT22;9663;48.996;8.334;2023-11-21T08:52:19;14.20;66.10
19060;DHT22;9663;48.996;8.334;2023-11-21T08:54:48;14.20;66.00
19060;DHT22;9663;48.996;8.334;2023-11-21T08:57:24;14.30;66.00
19060;DHT22;9663;48.996;8.334;2023-11-21T08:59:50;14.30;66.00
19060;DHT22;9663;48.996;8.334;2023-11-21T09:02:26;14.30;66.00
19060;DHT22;9663;48.996;8.334;2023-11-21T09:04:52;14.40;66.00
19060;DHT22;9663;48.996;8.334;2023-11-21T09:07:20;14.40;65.90
19060;DHT22;9663;48.996;8.334;2023-11-21T09:09:48;14.40;65.90
19060;DHT22;9663;48.996;8.334;2023-11-21T09:12:15;14.40;65.80
19060;DHT22;9663;48.996;8.334;2023-11-21T09:14:42;14.40;65.70
19060;DHT22;9663;48.996;8.334;2023-11-21T09:17:09;14.40;65.60
19060;DHT22;9663;48.996;8.334;2023-11-21T09:19:38;14.40;65.60
19060;DHT22;9663;48.996;8.334;2023-11-21T09:22:04;14.40;65.60
19060;DHT22;9663;48.996;8.334;2023-11-21T09:24:34;14.40;65.70
19060;DHT22;9663;48.996;8.334;2023-11-21T09:27:00;14.40;65.80
19060;DHT22;9663;48.996;8.334;2023-11-21T09:29:26;14.40;65.70
19060;DHT22;9663;48.996;8.334;2023-11-21T09:31:52;14.40;65.70
19060;DHT22;9663;48.996;8.334;2023-11-21T09:34:20;14.40;65.70
19060;DHT22;9663;48.996;8.334;2023-11-21T09:36:47;14.40;65.70
19060;DHT22;9663;48.996;8.334;2023-11-21T09:39:13;14.40;65.60
19060;DHT22;9663;48.996;8.334;2023-11-21T09:41:50;14.40;65.70
19060;DHT22;9663;48.996;8.334;2023-11-21T09:44:22;14.40;65.60
19060;DHT22;9663;48.996;8.334;2023-11-21T09:46:59;14.40;65.70
19060;DHT22;9663;48.996;8.334;2023-11-21T09:49:26;14.40;65.70
19060;DHT22;9663;48.996;8.334;2023-11-21T09:51:55;14.50;65.60
19060;DHT22;9663;48.996;8.334;2023-11-21T09:54:22;14.50;65.60
19060;DHT22;9663;48.996;8.334;2023-11-21T09:56:49;14.50;65.50
19060;DHT22;9663;48.996;8.334;2023-11-21T09:59:15;14.50;65.30
19060;DHT22;9663;48.996;8.334;2023-11-21T10:01:42;14.50;65.30
19060;DHT22;9663;48.996;8.334;2023-11-21T10:04:11;14.50;65.30
19060;DHT22;9663;48.996;8.334;2023-11-21T10:06:41;14.50;65.30
19060;DHT22;9663;48.996;8.334;2023-11-21T10:09:10;14.40;65.10
19060;DHT22;9663;48.996;8.334;2023-11-21T10:11:40;14.40;65.10
19060;DHT22;9663;48.996;8.334;2023-11-21T10:14:10;14.40;65.20
19060;DHT22;9663;48.996;8.334;2023-11-21T10:16:38;14.30;65.30
19060;DHT22;9663;48.996;8.334;2023-11-21T10:19:10;14.30;65.30
19060;DHT22;9663;48.996;8.334;2023-11-21T10:21:41;14.20;65.20
19060;DHT22;9663;48.996;8.334;2023-11-21T10:24:07;14.20;65.30
19060;DHT22;9663;48.996;8.334;2023-11-21T10:26:33;14.20;65.40
19060;DHT22;9663;48.996;8.334;2023-11-21T10:29:02;14.20;65.40
19060;DHT22;9663;48.996;8.334;2023-11-21T10:31:32;14.20;65.50
19060;DHT22;9663;48.996;8.334;2023-11-21T10:34:16;14.10;65.50
19060;DHT22;9663;48.996;8.334;2023-11-21T10:36:44;14.20;65.70
19060;DHT22;9663;48.996;8.334;2023-11-21T10:39:18;14.10;65.60
19060;DHT22;9663;48.996;8.334;2023-11-21T10:41:48;14.20;65.70
19060;DHT22;9663;48.996;8.334;2023-11-21T10:44:16;14.20;65.60
19060;DHT22;9663;48.996;8.334;2023-11-21T10:46:50;14.10;65.40
19060;DHT22;9663;48.996;8.334;2023-11-21T10:49:26;14.10;65.50
19060;DHT22;9663;48.996;8.334;2023-11-21T10:51:53;14.10;65.70
19060;DHT22;9663;48.996;8.334;2023-11-21T10:54:24;14.10;65.60
19060;DHT22;9663;48.996;8.334;2023-11-21T10:56:56;14.00;65.90
19060;DHT22;9663;48.996;8.334;2023-11-21T10:59:28;14.10;66.00
19060;DHT22;9663;48.996;8.334;2023-11-21T11:01:57;14.00;65.90
19060;DHT22;9663;48.996;8.334;2023-11-21T11:04:25;14.10;66.00
19060;DHT22;9663;48.996;8.334;2023-11-21T11:06:57;14.10;65.90
19060;DHT22;9663;48.996;8.334;2023-11-21T11:09:26;14.10;65.80
19060;DHT22;9663;48.996;8.334;2023-11-21T11:11:52;14.10;65.70
19060;DHT22;9663;48.996;8.334;2023-11-21T11:14:19;14.00;65.60
19060;DHT22;9663;48.996;8.334;2023-11-21T11:16:45;14.00;65.70
19060;DHT22;9663;48.996;8.334;2023-11-21T11:19:11;14.00;65.80
19060;DHT22;9663;48.996;8.334;2023-11-21T11:24:55;14.00;66.10
19060;DHT22;9663;48.996;8.334;2023-11-21T11:27:44;14.00;66.10
19060;DHT22;9663;48.996;8.334;2023-11-21T11:33:36;14.00;66.10
19060;DHT22;9663;48.996;8.334;2023-11-21T11:36:17;14.00;66.30
19060;DHT22;9663;48.996;8.334;2023-11-21T11:38:47;14.10;67.40
19060;DHT22;9663;48.996;8.334;2023-11-21T11:41:27;14.20;66.90
19060;DHT22;9663;48.996;8.334;2023-11-21T11:43:58;14.20;66.50
19060;DHT22;9663;48.996;8.334;2023-11-21T11:46:44;14.40;67.60
19060;DHT22;9663;48.996;8.334;2023-11-21T11:49:27;14.50;67.10
19060;DHT22;9663;48.996;8.334;2023-11-21T11:52:31;14.50;66.60
19060;DHT22;9663;48.996;8.334;2023-11-21T11:55:13;14.60;66.30
19060;DHT22;9663;48.996;8.334;2023-11-21T11:57:41;14.60;65.70
19060;DHT22;9663;48.996;8.334;2023-11-21T12:02:41;14.60;65.70
19060;DHT22;9663;48.996;8.334;2023-11-21T12:05:17;14.60;65.50
19060;DHT22;9663;48.996;8.334;2023-11-21T12:07:57;14.50;65.50
19060;DHT22;9663;48.996;8.334;2023-11-21T12:10:27;14.50;65.50
19060;DHT22;9663;48.996;8.334;2023-11-21T12:13:05;14.50;65.50
19060;DHT22;9663;48.996;8.334;2023-11-21T12:15:33;14.40;65.40
19060;DHT22;9663;48.996;8.334;2023-11-21T12:18:00;14.40;65.50
19060;DHT22;9663;48.996;8.334;2023-11-21T12:20:27;14.30;65.60
19060;DHT22;9663;48.996;8.334;2023-11-21T12:22:55;14.30;65.60
19060;DHT22;9663;48.996;8.334;2023-11-21T12:25:23;14.30;65.70
19060;DHT22;9663;48.996;8.334;2023-11-21T12:27:52;14.30;65.80
19060;DHT22;9663;48.996;8.334;2023-11-21T12:30:23;14.30;66.40
19060;DHT22;9663;48.996;8.334;2023-11-21T12:32:51;14.30;66.00
19060;DHT22;9663;48.996;8.334;2023-11-21T12:35:23;14.30;66.00
19060;DHT22;9663;48.996;8.334;2023-11-21T12:37:51;14.40;66.10
19060;DHT22;9663;48.996;8.334;2023-11-21T12:40:18;14.30;66.00
19060;DHT22;9663;48.996;8.334;2023-11-21T12:42:45;14.40;66.10
19060;DHT22;9663;48.996;8.334;2023-11-21T12:48:06;14.40;66.10
19060;DHT22;9663;48.996;8.334;2023-11-21T12:50:38;14.40;66.30
19060;DHT22;9663;48.996;8.334;2023-11-21T12:53:06;14.50;66.20
19060;DHT22;9663;48.996;8.334;2023-11-21T12:55:38;14.50;66.30
19060;DHT22;9663;48.996;8.334;2023-11-21T12:58:06;14.60;66.20
19060;DHT22;9663;48.996;8.334;2023-11-21T13:00:39;14.60;66.30
19060;DHT22;9663;48.996;8.334;2023-11-21T13:03:09;14.60;66.10
19060;DHT22;9663;48.996;8.334;2023-11-21T13:05:39;14.70;66.10
19060;DHT22;9663;48.996;8.334;2023-11-21T13:08:13;14.70;65.90
19060;DHT22;9663;48.996;8.334;2023-11-21T13:10:44;14.80;66.80
19060;DHT22;9663;48.996;8.334;2023-11-21T13:13:13;14.80;66.00
19060;DHT22;9663;48.996;8.334;2023-11-21T13:15:48;14.90;66.10
19060;DHT22;9663;48.996;8.334;2023-11-21T13:18:24;14.90;66.00
19060;DHT22;9663;48.996;8.334;2023-11-21T13:20:53;15.00;65.90
19060;DHT22;9663;48.996;8.334;2023-11-21T13:23:20;15.10;65.90
19060;DHT22;9663;48.996;8.334;2023-11-21T13:25:47;15.10;65.70
19060;DHT22;9663;48.996;8.334;2023-11-21T13:28:14;15.20;65.60
19060;DHT22;9663;48.996;8.334;2023-11-21T13:30:41;15.30;65.50
19060;DHT22;9663;48.996;8.334;2023-11-21T13:33:08;15.30;65.30
19060;DHT22;9663;48.996;8.334;2023-11-21T13:35:37;15.30;65.20
19060;DHT22;9663;48.996;8.334;2023-11-21T13:38:15;15.30;65.00
19060;DHT22;9663;48.996;8.334;2023-11-21T13:40:52;15.40;64.90
19060;DHT22;9663;48.996;8.334;2023-11-21T13:43:23;15.30;64.90
19060;DHT22;9663;48.996;8.334;2023-11-21T13:45:53;15.30;64.90
19060;DHT22;9663;48.996;8.334;2023-11-21T13:48:37;15.30;65.10
19060;DHT22;9663;48.996;8.334;2023-11-21T13:51:11;15.40;65.30
19060;DHT22;9663;48.996;8.334;2023-11-21T13:53:47;15.50;65.40
19060;DHT22;9663;48.996;8.334;2023-11-21T13:56:15;15.80;66.30
19060;DHT22;9663;48.996;8.334;2023-11-21T13:58:45;15.90;65.80
19060;DHT22;9663;48.996;8.334;2023-11-21T14:01:21;16.00;65.40
19060;DHT22;9663;48.996;8.334;2023-11-21T14:04:06;16.10;64.80
19060;DHT22;9663;48.996;8.334;2023-11-21T14:06:38;16.10;64.20
19060;DHT22;9663;48.996;8.334;2023-11-21T14:09:17;16.10;64.20
19060;DHT22;9663;48.996;8.334;2023-11-21T14:11:55;16.20;64.40
19060;DHT22;9663;48.996;8.334;2023-11-21T14:14:24;16.20;64.10
19060;DHT22;9663;48.996;8.334;2023-11-21T14:16:51;16.20;64.00
19060;DHT22;9663;48.996;8.334;2023-11-21T14:19:18;16.10;63.50
19060;DHT22;9663;48.996;8.334;2023-11-21T14:21:44;16.10;63.40
19060;DHT22;9663;48.996;8.334;2023-11-21T14:24:11;16.10;63.50
19060;DHT22;9663;48.996;8.334;2023-11-21T14:26:40;16.00;63.40
19060;DHT22;9663;48.996;8.334;2023-11-21T14:29:07;16.00;63.50
19060;DHT22;9663;48.996;8.334;2023-11-21T14:31:34;15.90;63.70
19060;DHT22;9663;48.996;8.334;2023-11-21T14:34:00;15.90;64.70
19060;DHT22;9663;48.996;8.334;2023-11-21T14:36:29;15.90;64.10
19060;DHT22;9663;48.996;8.334;2023-11-21T14:38:54;15.90;64.80
19060;DHT22;9663;48.996;8.334;2023-11-21T14:41:20;15.90;64.70
19060;DHT22;9663;48.996;8.334;2023-11-21T14:43:45;16.00;64.50
19060;DHT22;9663;48.996;8.334;2023-11-21T14:46:15;16.00;64.10
19060;DHT22;9663;48.996;8.334;2023-11-21T14:48:42;16.20;64.60
19060;DHT22;9663;48.996;8.334;2023-11-21T14:51:09;16.30;64.40
19060;DHT22;9663;48.996;8.334;2023-11-21T14:53:38;16.30;64.00
19060;DHT22;9663;48.996;8.334;2023-11-21T14:56:20;16.40;63.60
19060;DHT22;9663;48.996;8.334;2023-11-21T14:58:54;16.50;63.50
19060;DHT22;9663;48.996;8.334;2023-11-21T15:01:23;16.50;63.10
19060;DHT22;9663;48.996;8.334;2023-11-21T15:04:08;16.50;62.70
19060;DHT22;9663;48.996;8.334;2023-11-21T15:06:40;16.50;62.60
19060;DHT22;9663;48.996;8.334;2023-11-21T15:09:08;16.40;62.40
19060;DHT22;9663;48.996;8.334;2023-11-21T15:11:35;16.30;62.30
19060;DHT22;9663;48.996;8.334;2023-11-21T15:14:03;16.20;62.30
19060;DHT22;9663;48.996;8.334;2023-11-21T15:16:35;16.10;62.40
19060;DHT22;9663;48.996;8.334;2023-11-21T15:19:06;16.10;62.50
19060;DHT22;9663;48.996;8.334;2023-11-21T15:21:32;16.00;63.20
19060;DHT22;9663;48.996;8.334;2023-11-21T15:23:58;16.00;63.00
19060;DHT22;9663;48.996;8.334;2023-11-21T15:26:24;15.90;62.90
19060;DHT22;9663;48.996;8.334;2023-11-21T15:28:49;15.80;62.60
19060;DHT22;9663;48.996;8.334;2023-11-21T15:31:15;15.80;62.30
19060;DHT22;9663;48.996;8.334;2023-11-21T15:33:45;15.70;62.30
19060;DHT22;9663;48.996;8.334;2023-11-21T15:36:11;15.60;62.20
19060;DHT22;9663;48.996;8.334;2023-11-21T15:38:38;15.50;62.20
19060;DHT22;9663;48.996;8.334;2023-11-21T15:41:04;15.40;62.30
19060;DHT22;9663;48.996;8.334;2023-11-21T15:43:32;15.30;62.40
19060;DHT22;9663;48.996;8.334;2023-11-21T15:45:58;15.20;62.60
19060;DHT22;9663;48.996;8.334;2023-11-21T15:48:24;15.10;62.70
19060;DHT22;9663;48.996;8.334;2023-11-21T15:50:51;15.00;62.80
19060;DHT22;9663;48.996;8.334;2023-11-21T15:53:17;14.90;62.80
19060;DHT22;9663;48.996;8.334;2023-11-21T15:55:43;15.00;64.60
19060;DHT22;9663;48.996;8.334;2023-11-21T15:58:09;14.90;63.50
19060;DHT22;9663;48.996;8.334;2023-11-21T16:00:35;14.90;63.00
19060;DHT22;9663;48.996;8.334;2023-11-21T16:03:03;14.90;63.00